Alcester, South Dakota
Current Conditions -  °F | °C
As of 1:55 PM on Thursday 30 Oct 2014 (Local Time) from KLRJ Reporting Station
Few Clouds Few Clouds  
Wind Chill: 15°   Ceiling: Unl
Heat Index: 15°   Visibility: 10mi
Dew Point:   Wind: 18mph
Humidity: 48%   Direction: 350°N
Pressure: 30.09"   Gusts: 29mph
Location:  43.02°N, 96.63°W
Report Text: KLRJ 301855Z AUTO 35016G25KT 10SM FEW045 15/04 A3009 RMK AO2
Loading
Personal Weather Stations






























Interactive Weather Map
Tropical Storm Tracking
New forecast layout! Learn more

10-Day Weather Forecast

Advertisements
Track Severe Weather on mobile